Time;durP1;ratioP1;P1;durP2;ratioP2;P2;SDS_P1;SDS_P2;PMS_P1;PMS_P2;Temp;Humidity;BMP_temperature;BMP_pressure;BME280_temperature;BME280_humidity;BME280_pressure;Samples;Min_cycle;Max_cycle;Signal;HPM_P1;HPM_P2
2021/06/21 00:02:02;;;;;;;4.30;3.50;;;20.10;99.90;;;;;;5013765;28;20214;-81
2021/06/21 00:04:28;;;;;;;4.70;3.57;;;20.10;99.90;;;;;;5011958;28;20216;-78
2021/06/21 00:06:53;;;;;;;7.20;3.80;;;20.10;99.90;;;;;;5013698;28;20944;-81
2021/06/21 00:09:19;;;;;;;5.70;3.33;;;20.10;99.90;;;;;;5013603;28;20648;-79
2021/06/21 00:11:44;;;;;;;5.33;3.67;;;20.10;99.90;;;;;;5013386;28;20182;-78
2021/06/21 00:14:10;;;;;;;3.97;3.57;;;20.00;99.90;;;;;;5012820;28;20675;-79
2021/06/21 00:16:36;;;;;;;3.30;3.00;;;20.00;99.90;;;;;;5012075;28;20182;-79
2021/06/21 00:19:01;;;;;;;5.13;3.60;;;20.00;99.90;;;;;;5013296;28;20190;-79
2021/06/21 00:21:27;;;;;;;3.90;3.50;;;20.10;99.90;;;;;;5012153;28;20182;-77
2021/06/21 00:23:53;;;;;;;4.00;3.60;;;20.20;99.90;;;;;;5015038;28;20248;-80
2021/06/21 00:26:19;;;;;;;3.93;3.60;;;20.10;99.90;;;;;;5017091;28;20190;-78
2021/06/21 00:28:44;;;;;;;3.87;3.57;;;20.10;99.90;;;;;;5016990;28;20190;-78
2021/06/21 00:31:10;;;;;;;4.87;4.47;;;20.20;99.90;;;;;;5015664;28;20557;-79
2021/06/21 00:33:36;;;;;;;5.50;3.70;;;20.20;99.90;;;;;;5015497;28;20183;-78
2021/06/21 00:36:01;;;;;;;7.80;4.00;;;20.20;99.90;;;;;;5016839;28;20182;-81
2021/06/21 00:38:27;;;;;;;4.40;4.00;;;20.20;99.90;;;;;;5016877;28;20703;-77
2021/06/21 00:40:53;;;;;;;4.30;4.00;;;20.20;99.90;;;;;;5016676;28;20259;-81
2021/06/21 00:43:18;;;;;;;5.93;5.37;;;20.20;99.90;;;;;;5016745;28;20179;-76
2021/06/21 00:45:44;;;;;;;10.50;6.10;;;20.10;99.90;;;;;;5015935;28;20205;-77
2021/06/21 00:48:09;;;;;;;9.93;6.20;;;20.00;99.90;;;;;;5017101;28;20675;-80
2021/06/21 00:50:35;;;;;;;6.90;6.20;;;19.90;99.90;;;;;;5016245;28;20175;-77
2021/06/21 00:53:02;;;;;;;6.90;6.20;;;19.80;99.90;;;;;;5015287;28;20643;-76
2021/06/21 00:55:29;;;;;;;6.33;5.83;;;19.80;99.90;;;;;;5015460;28;20222;-78
2021/06/21 00:57:55;;;;;;;8.50;6.30;;;19.70;99.90;;;;;;5015496;28;20521;-80
2021/06/21 01:00:23;;;;;;;7.50;6.70;;;19.70;99.90;;;;;;5015357;28;20442;-77
2021/06/21 01:02:49;;;;;;;8.60;7.67;;;19.80;99.90;;;;;;5016393;28;20449;-78
2021/06/21 01:05:18;;;;;;;8.07;7.30;;;19.70;99.90;;;;;;5016218;28;20419;-79
2021/06/21 01:07:43;;;;;;;7.30;6.70;;;19.80;99.90;;;;;;5016571;28;21014;-77
2021/06/21 01:10:11;;;;;;;7.87;7.20;;;19.80;99.90;;;;;;5016689;28;20610;-79
2021/06/21 01:12:52;;;;;;;6.67;6.07;;;19.80;99.90;;;;;;5015448;28;20245;-79
2021/06/21 01:15:20;;;;;;;8.33;7.50;;;19.80;99.90;;;;;;5016146;28;20552;-78
2021/06/21 01:17:52;;;;;;;7.60;6.90;;;19.80;99.90;;;;;;5016446;28;20413;-80
2021/06/21 01:20:55;;;;;;;9.27;7.60;;;19.50;99.90;;;;;;5016712;28;20464;-79
2021/06/21 01:23:52;;;;;;;8.33;7.53;;;19.50;99.90;;;;;;5015813;28;20384;-79
2021/06/21 01:26:32;;;;;;;8.77;7.00;;;19.60;99.90;;;;;;5016165;28;20468;-79
2021/06/21 01:29:12;;;;;;;9.00;7.00;;;19.70;99.90;;;;;;5014765;28;20391;-80
2021/06/21 01:31:47;;;;;;;8.00;7.20;;;19.70;99.90;;;;;;5015786;28;20405;-77
2021/06/21 01:34:15;;;;;;;7.43;6.83;;;19.70;99.90;;;;;;5015047;28;20519;-79
2021/06/21 01:36:44;;;;;;;9.53;7.40;;;19.70;99.90;;;;;;5016015;28;20472;-81
2021/06/21 01:39:10;;;;;;;7.83;7.20;;;19.60;99.90;;;;;;5016587;28;20440;-80
2021/06/21 01:41:39;;;;;;;9.40;8.50;;;19.70;99.90;;;;;;5017721;28;20422;-78
2021/06/21 01:44:07;;;;;;;9.07;8.10;;;19.70;99.90;;;;;;5015656;28;20440;-79
2021/06/21 01:46:36;;;;;;;11.93;9.20;;;19.70;99.90;;;;;;5016403;28;20385;-77
2021/06/21 01:49:08;;;;;;;10.23;8.03;;;19.70;99.90;;;;;;5016036;28;20418;-79
2021/06/21 01:51:36;;;;;;;11.30;7.93;;;19.70;99.90;;;;;;5016085;28;21010;-77
2021/06/21 01:54:04;;;;;;;8.57;7.80;;;19.60;99.90;;;;;;5015296;28;20468;-79
2021/06/21 01:56:33;;;;;;;10.87;9.77;;;19.50;99.90;;;;;;5015651;28;20395;-78
2021/06/21 01:59:04;;;;;;;10.50;9.60;;;19.50;99.90;;;;;;5015857;28;20543;-79
2021/06/21 02:01:31;;;;;;;11.70;10.57;;;19.60;99.90;;;;;;5015952;28;20413;-81
2021/06/21 02:04:00;;;;;;;11.73;9.93;;;19.50;99.90;;;;;;5015043;28;20528;-80
2021/06/21 02:06:31;;;;;;;10.57;9.57;;;19.30;99.90;;;;;;5015562;28;20490;-77
2021/06/21 02:08:58;;;;;;;11.00;9.90;;;19.30;99.90;;;;;;5015493;28;20933;-79
2021/06/21 02:11:26;;;;;;;10.77;9.77;;;19.20;99.90;;;;;;5015489;28;20421;-79
2021/06/21 02:13:53;;;;;;;11.33;9.67;;;19.30;99.90;;;;;;5014574;28;20827;-79
2021/06/21 02:16:19;;;;;;;12.20;10.03;;;19.20;99.90;;;;;;5015147;28;20833;-80
2021/06/21 02:18:48;;;;;;;13.33;12.00;;;19.10;99.90;;;;;;5013745;28;20425;-80
2021/06/21 02:21:14;;;;;;;18.90;11.60;;;19.10;99.90;;;;;;5014893;28;20410;-77
2021/06/21 02:23:41;;;;;;;12.57;11.47;;;19.20;99.90;;;;;;5014521;28;20467;-77
2021/06/21 02:26:07;;;;;;;12.70;10.93;;;19.10;99.90;;;;;;5014677;28;20577;-80
2021/06/21 02:28:34;;;;;;;12.23;11.13;;;19.10;99.90;;;;;;5013583;28;20797;-78
2021/06/21 02:31:01;;;;;;;12.80;11.70;;;19.20;99.90;;;;;;5013655;28;20467;-78
2021/06/21 02:33:27;;;;;;;12.30;11.20;;;19.10;99.90;;;;;;5014316;28;20477;-80
2021/06/21 02:35:53;;;;;;;14.97;11.40;;;19.20;99.90;;;;;;5014460;28;20553;-81
2021/06/21 02:38:19;;;;;;;10.80;9.90;;;19.30;99.90;;;;;;5013605;28;20392;-80
2021/06/21 02:40:45;;;;;;;16.23;10.47;;;19.40;99.90;;;;;;5014928;28;20557;-79
2021/06/21 02:43:11;;;;;;;12.77;11.63;;;19.50;99.90;;;;;;5014946;28;20171;-78
2021/06/21 02:45:37;;;;;;;13.67;11.43;;;19.40;99.90;;;;;;5014834;28;20862;-78
2021/06/21 02:48:05;;;;;;;13.30;12.00;;;19.30;99.90;;;;;;5013759;28;20422;-81
2021/06/21 02:50:31;;;;;;;12.63;11.53;;;19.20;99.90;;;;;;5014701;28;20422;-79
2021/06/21 02:53:08;;;;;;;14.90;13.10;;;19.20;99.90;;;;;;5014262;28;20492;-80
2021/06/21 02:55:57;;;;;;;14.10;11.83;;;19.30;99.90;;;;;;5014519;28;20440;-77
2021/06/21 02:58:31;;;;;;;12.10;10.90;;;19.20;99.90;;;;;;5014518;28;20917;-79
2021/06/21 03:01:02;;;;;;;14.30;13.00;;;19.20;99.90;;;;;;5014341;28;20410;-78
2021/06/21 03:03:33;;;;;;;13.67;12.27;;;19.10;99.90;;;;;;5013021;28;20552;-78
2021/06/21 03:06:01;;;;;;;19.93;11.80;;;19.20;99.90;;;;;;5014326;28;20908;-80
2021/06/21 03:08:29;;;;;;;13.37;12.10;;;18.90;99.90;;;;;;5013836;28;20413;-80
2021/06/21 03:10:56;;;;;;;12.10;10.73;;;18.90;99.90;;;;;;5014114;28;20410;-78
2021/06/21 03:13:22;;;;;;;11.30;10.30;;;19.00;99.90;;;;;;5013988;28;20794;-80
2021/06/21 03:15:53;;;;;;;12.30;11.17;;;19.00;99.90;;;;;;5013985;28;20466;-79
2021/06/21 03:18:23;;;;;;;13.10;11.77;;;19.00;99.90;;;;;;5014038;28;20406;-80
2021/06/21 03:20:58;;;;;;;13.87;12.50;;;19.00;99.90;;;;;;5013844;28;20417;-79
2021/06/21 03:23:26;;;;;;;16.20;14.40;;;19.10;99.90;;;;;;5013626;28;20413;-79
2021/06/21 03:25:54;;;;;;;15.33;14.03;;;19.00;99.90;;;;;;5012724;28;20485;-80
2021/06/21 03:28:21;;;;;;;14.60;13.00;;;19.00;99.90;;;;;;5013883;28;20407;-80
2021/06/21 03:30:51;;;;;;;13.70;12.40;;;19.00;99.90;;;;;;5012494;28;20426;-79
2021/06/21 03:33:17;;;;;;;16.73;13.10;;;19.00;99.90;;;;;;5013732;28;20429;-81
2021/06/21 03:35:43;;;;;;;15.33;13.83;;;18.90;99.90;;;;;;5013797;28;20432;-81
2021/06/21 03:38:14;;;;;;;18.03;13.47;;;18.90;99.90;;;;;;5013865;28;20425;-80
2021/06/21 03:40:42;;;;;;;14.03;12.53;;;18.80;99.90;;;;;;5013789;28;20167;-78
2021/06/21 03:43:09;;;;;;;12.53;11.30;;;18.80;99.90;;;;;;5013711;28;20755;-81
2021/06/21 03:45:34;;;;;;;12.10;11.10;;;18.80;99.90;;;;;;5013779;28;20460;-77
2021/06/21 03:48:00;;;;;;;14.80;13.07;;;18.80;99.90;;;;;;5012649;28;20425;-81
2021/06/21 03:50:25;;;;;;;17.90;14.90;;;18.80;99.90;;;;;;5013615;28;20179;-81
2021/06/21 03:52:51;;;;;;;15.57;13.77;;;18.80;99.90;;;;;;5011819;28;20183;-79
2021/06/21 03:55:17;;;;;;;13.90;12.47;;;18.90;99.90;;;;;;4995881;28;20219;-77
2021/06/21 03:57:45;;;;;;;17.20;15.47;;;18.90;99.90;;;;;;5016425;28;20245;-79
2021/06/21 04:00:18;;;;;;;15.23;13.77;;;18.90;99.90;;;;;;5016482;28;20175;-79
2021/06/21 04:02:43;;;;;;;14.33;13.03;;;18.90;99.90;;;;;;5016139;28;20811;-77
2021/06/21 04:05:10;;;;;;;14.83;13.33;;;19.00;99.90;;;;;;5018300;28;20540;-81
2021/06/21 04:07:36;;;;;;;15.03;13.23;;;19.00;99.90;;;;;;5018023;28;20213;-77
2021/06/21 04:10:05;;;;;;;19.13;14.37;;;19.00;99.90;;;;;;5017429;28;20441;-79
2021/06/21 04:12:30;;;;;;;18.50;14.40;;;19.00;99.90;;;;;;5015883;28;20421;-77
2021/06/21 04:14:56;;;;;;;17.30;15.70;;;19.00;99.90;;;;;;5015145;28;20486;-78
2021/06/21 04:17:22;;;;;;;17.30;15.70;;;19.00;99.90;;;;;;5017342;28;20922;-79
2021/06/21 04:19:48;;;;;;;21.17;19.17;;;19.10;99.90;;;;;;5017087;28;20263;-80
2021/06/21 04:22:13;;;;;;;22.53;18.60;;;19.10;99.90;;;;;;5017158;28;20225;-80
2021/06/21 04:24:39;;;;;;;21.13;18.93;;;19.10;99.90;;;;;;5016508;28;20417;-80
2021/06/21 04:27:05;;;;;;;24.10;21.70;;;19.00;99.90;;;;;;5016754;28;20588;-80
2021/06/21 04:29:31;;;;;;;21.80;19.70;;;19.10;99.90;;;;;;5016880;28;20261;-80
2021/06/21 04:31:56;;;;;;;25.00;22.33;;;19.10;99.90;;;;;;5015593;28;20505;-79
2021/06/21 04:34:22;;;;;;;29.70;23.93;;;19.10;99.90;;;;;;5016274;28;20234;-79
2021/06/21 04:36:47;;;;;;;26.87;24.20;;;19.00;99.90;;;;;;5015673;28;20546;-79
2021/06/21 04:39:13;;;;;;;27.87;24.90;;;19.10;99.90;;;;;;5016811;28;20182;-79
2021/06/21 04:41:38;;;;;;;27.13;24.33;;;19.10;99.90;;;;;;5016807;28;20183;-78
2021/06/21 04:44:04;;;;;;;28.00;25.20;;;19.20;99.90;;;;;;5019286;28;20202;-79
2021/06/21 04:46:33;;;;;;;29.27;25.10;;;19.20;99.90;;;;;;5016527;28;20182;-78
2021/06/21 04:48:59;;;;;;;23.40;20.93;;;19.30;99.90;;;;;;5016406;28;20178;-80
2021/06/21 04:51:25;;;;;;;31.00;26.57;;;19.40;99.90;;;;;;5014950;28;20432;-77
2021/06/21 04:53:50;;;;;;;30.47;27.47;;;19.40;99.90;;;;;;5015858;28;20515;-78
2021/06/21 04:56:16;;;;;;;29.77;26.57;;;19.40;99.90;;;;;;5016563;28;20179;-80
2021/06/21 04:58:43;;;;;;;30.70;27.43;;;19.40;99.90;;;;;;5016515;28;20536;-81
2021/06/21 05:01:09;;;;;;;26.77;24.27;;;19.40;99.90;;;;;;5014695;28;20187;-79
2021/06/21 05:03:37;;;;;;;29.37;26.50;;;19.40;99.90;;;;;;5016143;28;20417;-81
2021/06/21 05:06:04;;;;;;;26.87;24.27;;;19.40;99.90;;;;;;5015088;28;20651;-79
2021/06/21 05:08:30;;;;;;;28.13;25.30;;;19.50;99.90;;;;;;5015393;28;20424;-81
2021/06/21 05:10:55;;;;;;;28.10;25.20;;;19.50;99.90;;;;;;5014857;28;20516;-80
2021/06/21 05:13:21;;;;;;;24.70;22.40;;;19.70;99.90;;;;;;5015534;28;20519;-80
2021/06/21 05:15:46;;;;;;;25.97;23.20;;;19.70;99.90;;;;;;5016070;28;20203;-80
2021/06/21 05:18:12;;;;;;;24.77;22.27;;;19.80;99.90;;;;;;5014688;28;20175;-78
2021/06/21 05:20:38;;;;;;;25.90;20.60;;;19.80;99.90;;;;;;5014895;28;20574;-81
2021/06/21 05:23:03;;;;;;;25.77;23.07;;;19.90;99.90;;;;;;5015597;28;20175;-81
2021/06/21 05:25:32;;;;;;;25.50;22.90;;;19.90;99.90;;;;;;5015705;28;20234;-80
2021/06/21 05:27:58;;;;;;;24.77;22.27;;;19.80;99.90;;;;;;5014469;28;20194;-77
2021/06/21 05:30:24;;;;;;;25.17;22.77;;;19.80;99.90;;;;;;5015938;28;20433;-81
2021/06/21 05:32:50;;;;;;;27.07;24.37;;;19.90;99.90;;;;;;4997708;28;20313;-81
2021/06/21 05:35:15;;;;;;;27.50;25.00;;;20.00;99.90;;;;;;5015337;28;20786;-80
2021/06/21 05:37:41;;;;;;;27.53;24.70;;;19.90;99.90;;;;;;5015432;28;20253;-79
2021/06/21 05:40:07;;;;;;;28.80;26.07;;;19.90;99.90;;;;;;5014609;28;20198;-79
2021/06/21 05:42:33;;;;;;;27.40;24.70;;;19.90;99.90;;;;;;5015301;28;20250;-80
2021/06/21 05:44:59;;;;;;;24.70;22.40;;;20.00;99.90;;;;;;5015408;28;20495;-78
2021/06/21 05:47:24;;;;;;;26.10;23.70;;;20.00;99.90;;;;;;5014374;28;20218;-78
2021/06/21 05:49:50;;;;;;;26.37;23.60;;;20.10;99.90;;;;;;5015482;28;20274;-79
2021/06/21 05:52:16;;;;;;;25.93;23.60;;;20.10;99.90;;;;;;5015630;28;20539;-78
2021/06/21 05:54:41;;;;;;;26.47;23.80;;;20.00;99.90;;;;;;5015081;28;20729;-81
2021/06/21 05:57:07;;;;;;;28.03;24.50;;;19.90;99.90;;;;;;5012576;28;20259;-79
2021/06/21 05:59:33;;;;;;;27.00;24.40;;;19.90;99.90;;;;;;5006939;28;20218;-78
2021/06/21 06:01:59;;;;;;;28.17;25.27;;;19.60;99.90;;;;;;5013424;28;20899;-77
2021/06/21 06:04:25;;;;;;;27.80;24.93;;;19.60;99.90;;;;;;5013051;28;20210;-76
2021/06/21 06:06:50;;;;;;;26.17;23.67;;;19.40;99.90;;;;;;5013058;28;20418;-78
2021/06/21 06:09:16;;;;;;;26.53;24.00;;;19.50;99.90;;;;;;5012579;28;20194;-76
2021/06/21 06:11:42;;;;;;;23.07;21.00;;;19.60;99.90;;;;;;5012918;28;20674;-79
2021/06/21 06:14:08;;;;;;;27.33;24.33;;;19.70;99.90;;;;;;5012309;28;20218;-79
2021/06/21 06:16:33;;;;;;;26.20;23.80;;;19.60;99.90;;;;;;5013159;28;20397;-77
2021/06/21 06:18:59;;;;;;;23.23;20.83;;;19.80;99.90;;;;;;5013630;28;20807;-77
2021/06/21 06:21:29;;;;;;;26.13;23.53;;;19.80;99.90;;;;;;5011616;28;20679;-79
2021/06/21 06:23:56;;;;;;;24.17;21.83;;;19.90;99.90;;;;;;5000242;28;20265;-78
2021/06/21 06:26:21;;;;;;;21.40;19.47;;;19.90;99.90;;;;;;4993721;28;20419;-78
2021/06/21 06:28:47;;;;;;;16.27;14.80;;;20.00;99.90;;;;;;4994328;28;20409;-78
2021/06/21 06:31:12;;;;;;;17.83;16.13;;;20.10;99.90;;;;;;4993478;28;20198;-77
2021/06/21 06:33:38;;;;;;;15.97;13.93;;;20.10;99.90;;;;;;4994395;28;20180;-76
2021/06/21 06:36:04;;;;;;;14.03;12.53;;;20.20;99.90;;;;;;4994029;28;20213;-77
2021/06/21 06:38:31;;;;;;;16.47;11.90;;;20.10;99.90;;;;;;4994772;28;20594;-78
2021/06/21 06:40:57;;;;;;;15.57;14.07;;;20.10;99.90;;;;;;4993940;28;20457;-77
2021/06/21 06:43:22;;;;;;;16.57;14.53;;;20.20;99.90;;;;;;4990950;28;20485;-76
2021/06/21 06:45:48;;;;;;;16.73;13.70;;;20.10;99.90;;;;;;4992967;28;20843;-77
2021/06/21 06:48:14;;;;;;;16.13;10.30;;;20.10;99.90;;;;;;4992970;28;20195;-79
2021/06/21 06:50:39;;;;;;;14.00;12.60;;;20.10;99.90;;;;;;4993601;28;20191;-77
2021/06/21 06:53:05;;;;;;;15.10;13.60;;;20.00;99.90;;;;;;4994445;28;20210;-78
2021/06/21 06:58:15;;;;;;;16.40;15.00;;;20.00;99.90;;;;;;4994773;28;20414;-79
2021/06/21 07:00:41;;;;;;;20.43;18.53;;;20.00;99.90;;;;;;4993680;28;20773;-79
2021/06/21 07:03:08;;;;;;;20.43;18.43;;;19.90;99.90;;;;;;4993072;28;20188;-78
2021/06/21 07:05:35;;;;;;;20.97;19.00;;;20.00;99.90;;;;;;4994741;28;20195;-80
2021/06/21 07:08:01;;;;;;;22.73;20.73;;;19.90;99.90;;;;;;4994199;28;20786;-78
2021/06/21 07:10:27;;;;;;;25.50;23.23;;;19.50;99.90;;;;;;4994328;28;20422;-81
2021/06/21 07:12:52;;;;;;;25.63;23.23;;;19.10;99.90;;;;;;4994235;28;20179;-79
2021/06/21 07:15:19;;;;;;;28.30;25.77;;;19.10;99.90;;;;;;4994035;28;20478;-77
2021/06/21 07:17:44;;;;;;;28.77;25.90;;;18.80;99.90;;;;;;4994290;28;20566;-77
2021/06/21 07:20:11;;;;;;;28.37;25.33;;;18.70;99.90;;;;;;4992874;28;20415;-75
2021/06/21 07:22:37;;;;;;;30.73;27.73;;;18.60;99.90;;;;;;4993987;28;20619;-77
2021/06/21 07:25:04;;;;;;;33.00;28.80;;;18.40;99.90;;;;;;4993974;28;20525;-77
2021/06/21 07:27:30;;;;;;;32.73;29.53;;;18.30;99.90;;;;;;4992738;28;20214;-77
2021/06/21 07:29:56;;;;;;;29.90;26.80;;;18.20;99.90;;;;;;4993853;28;20845;-76
2021/06/21 07:32:21;;;;;;;33.70;30.17;;;18.10;99.90;;;;;;4993596;28;20183;-78
2021/06/21 07:34:48;;;;;;;32.10;28.97;;;18.10;99.90;;;;;;4993600;28;20207;-78
2021/06/21 07:37:13;;;;;;;29.90;26.87;;;18.00;99.90;;;;;;4992582;28;20294;-79
2021/06/21 07:39:39;;;;;;;30.90;27.63;;;17.90;99.90;;;;;;4993902;28;20501;-78
2021/06/21 07:42:05;;;;;;;30.37;27.37;;;18.00;99.90;;;;;;4993903;28;20195;-77
2021/06/21 07:44:30;;;;;;;28.67;25.77;;;17.90;99.90;;;;;;4991796;28;20763;-78
2021/06/21 07:46:56;;;;;;;30.63;25.50;;;17.70;99.90;;;;;;4993932;28;20418;-79
2021/06/21 07:49:22;;;;;;;27.93;24.80;;;17.40;99.90;;;;;;4994324;28;20182;-78
2021/06/21 07:51:48;;;;;;;28.20;25.20;;;17.40;99.90;;;;;;4994344;28;20422;-79
2021/06/21 07:54:14;;;;;;;24.40;21.80;;;17.40;99.90;;;;;;4993396;28;20664;-77
2021/06/21 07:56:40;;;;;;;25.90;23.20;;;17.20;99.90;;;;;;4993758;28;20182;-78
2021/06/21 07:59:06;;;;;;;23.43;20.93;;;17.20;99.90;;;;;;4992597;28;20438;-76
2021/06/21 08:01:32;;;;;;;24.00;20.93;;;17.00;99.90;;;;;;4993849;28;20415;-76
2021/06/21 08:03:57;;;;;;;24.33;20.13;;;16.90;99.90;;;;;;4993419;28;20567;-76
2021/06/21 08:06:24;;;;;;;21.60;19.30;;;16.90;99.90;;;;;;4993729;28;20199;-78
2021/06/21 08:08:49;;;;;;;21.13;18.87;;;17.00;99.90;;;;;;4993446;28;20175;-76
2021/06/21 08:11:15;;;;;;;20.13;17.80;;;17.10;99.90;;;;;;4993788;28;20949;-76
2021/06/21 08:13:41;;;;;;;18.03;16.13;;;17.20;99.90;;;;;;4993132;28;20273;-78
2021/06/21 08:16:07;;;;;;;15.23;13.50;;;17.30;99.90;;;;;;4993901;28;20180;-78
2021/06/21 08:18:33;;;;;;;14.27;12.83;;;17.20;99.90;;;;;;4993553;28;20668;-77
2021/06/21 08:20:59;;;;;;;14.57;11.50;;;16.90;99.90;;;;;;4993676;28;20425;-76
2021/06/21 08:23:25;;;;;;;14.17;9.83;;;16.80;99.90;;;;;;4993449;28;20616;-77
2021/06/21 08:25:50;;;;;;;12.83;9.47;;;16.50;99.90;;;;;;4992166;28;20475;-76
2021/06/21 08:28:16;;;;;;;12.97;11.63;;;16.30;99.90;;;;;;4993581;28;20391;-77
2021/06/21 08:30:43;;;;;;;6.83;6.13;;;16.20;99.90;;;;;;4993364;28;20176;-76
2021/06/21 08:33:09;;;;;;;10.67;9.57;;;16.20;99.90;;;;;;5008228;28;20332;-77
2021/06/21 08:35:36;;;;;;;10.20;9.10;;;16.20;99.90;;;;;;4993237;28;20424;-79
2021/06/21 08:38:02;;;;;;;16.00;7.73;;;16.20;99.90;;;;;;4992372;28;20432;-76
2021/06/21 08:40:28;;;;;;;7.67;6.63;;;16.20;99.90;;;;;;4993290;28;20481;-77
2021/06/21 08:42:54;;;;;;;6.50;5.57;;;16.00;99.90;;;;;;4992841;28;20509;-79
2021/06/21 08:45:20;;;;;;;14.70;6.43;;;15.90;99.90;;;;;;4996645;28;20218;-78
2021/06/21 08:47:46;;;;;;;8.37;5.90;;;16.00;99.90;;;;;;4996805;28;20450;-77
2021/06/21 08:50:14;;;;;;;6.30;4.83;;;16.10;99.90;;;;;;4997022;28;20418;-77
2021/06/21 08:52:42;;;;;;;7.77;5.23;;;16.10;99.90;;;;;;4996746;28;20751;-77
2021/06/21 08:55:09;;;;;;;5.10;4.60;;;16.20;99.90;;;;;;4996680;28;20413;-77
2021/06/21 08:57:37;;;;;;;6.20;3.40;;;16.30;99.90;;;;;;4996594;28;20446;-76
2021/06/21 09:00:05;;;;;;;6.93;3.60;;;16.40;99.90;;;;;;4996720;28;20839;-78
2021/06/21 09:02:33;;;;;;;4.70;2.60;;;16.30;99.90;;;;;;4996629;28;20414;-79
2021/06/21 09:04:59;;;;;;;4.03;2.30;;;16.20;99.90;;;;;;5011350;28;20462;-78
2021/06/21 09:07:27;;;;;;;2.90;2.00;;;16.20;99.90;;;;;;4996753;28;20386;-78
2021/06/21 09:09:55;;;;;;;2.80;1.90;;;16.20;99.90;;;;;;4996617;28;20385;-77
2021/06/21 09:12:23;;;;;;;3.27;1.63;;;16.20;99.90;;;;;;4996477;28;20406;-77
2021/06/21 09:14:50;;;;;;;1.47;1.30;;;16.20;99.90;;;;;;4995838;28;20423;-79
2021/06/21 09:17:19;;;;;;;1.30;1.20;;;16.20;99.90;;;;;;4996503;28;20386;-77
2021/06/21 09:20:05;;;;;;;1.10;1.00;;;16.60;99.90;;;;;;4996407;28;20396;-80
2021/06/21 09:22:39;;;;;;;1.50;0.80;;;17.10;99.90;;;;;;4996286;28;20468;-79
2021/06/21 09:25:07;;;;;;;1.00;0.90;;;17.30;99.90;;;;;;4995780;28;20457;-79
2021/06/21 09:27:35;;;;;;;0.97;0.87;;;17.50;99.90;;;;;;4996180;28;20946;-78
2021/06/21 09:30:11;;;;;;;4.90;0.97;;;17.40;99.90;;;;;;4996003;28;20414;-78
2021/06/21 09:32:43;;;;;;;1.77;1.10;;;17.10;99.90;;;;;;4996017;28;20498;-78
2021/06/21 09:35:32;;;;;;;1.07;0.97;;;16.90;99.90;;;;;;4995685;28;20417;-78
2021/06/21 09:38:20;;;;;;;1.93;1.00;;;16.70;99.90;;;;;;4995992;28;20532;-77
2021/06/21 09:40:54;;;;;;;3.67;1.10;;;16.70;99.90;;;;;;4995909;28;20418;-78
2021/06/21 09:43:31;;;;;;;1.77;0.90;;;16.80;99.90;;;;;;4995268;28;20869;-77
2021/06/21 09:46:08;;;;;;;1.37;0.80;;;17.10;99.90;;;;;;4995707;28;20445;-78
2021/06/21 09:48:41;;;;;;;2.23;0.87;;;17.30;99.90;;;;;;4994433;28;20397;-78
2021/06/21 09:51:37;;;;;;;1.77;0.70;;;17.20;99.90;;;;;;4995653;28;20415;-76
2021/06/21 09:54:11;;;;;;;1.13;0.70;;;17.10;99.90;;;;;;4995185;28;20446;-78
2021/06/21 09:56:50;;;;;;;0.90;0.80;;;17.20;99.90;;;;;;4995836;28;20388;-78
2021/06/21 09:59:26;;;;;;;1.30;1.20;;;17.00;99.90;;;;;;4995710;28;20493;-76
2021/06/21 10:02:03;;;;;;;1.70;1.60;;;16.90;99.90;;;;;;4995580;28;20381;-78
2021/06/21 10:04:29;;;;;;;2.10;1.87;;;16.90;99.90;;;;;;4994936;28;20428;-76
2021/06/21 10:06:55;;;;;;;1.60;1.50;;;17.00;99.90;;;;;;4995459;28;20415;-77
2021/06/21 10:09:21;;;;;;;1.67;1.50;;;17.00;99.90;;;;;;4994008;28;20444;-79
2021/06/21 10:11:47;;;;;;;1.30;1.20;;;17.10;99.90;;;;;;4993902;28;20433;-77
2021/06/21 10:14:15;;;;;;;1.53;1.43;;;17.30;99.90;;;;;;4993401;28;20436;-76
2021/06/21 10:16:42;;;;;;;0.90;0.90;;;17.50;99.90;;;;;;4995085;28;20522;-78
2021/06/21 10:19:09;;;;;;;1.70;1.60;;;17.50;99.90;;;;;;4995664;28;20444;-78
2021/06/21 10:21:38;;;;;;;1.80;1.70;;;17.50;99.90;;;;;;4994914;28;20465;-77
2021/06/21 10:24:04;;;;;;;1.30;1.20;;;17.50;99.90;;;;;;5010223;28;20451;-78
2021/06/21 10:26:31;;;;;;;1.50;1.40;;;17.50;99.90;;;;;;5010038;28;20944;-78
2021/06/21 10:28:58;;;;;;;1.60;1.50;;;17.40;99.90;;;;;;4994955;28;20472;-80
2021/06/21 10:31:26;;;;;;;2.33;1.33;;;17.50;99.90;;;;;;4994774;28;20390;-79
2021/06/21 10:33:56;;;;;;;1.43;1.33;;;17.50;99.90;;;;;;4994322;28;20458;-77
2021/06/21 10:36:38;;;;;;;1.20;1.10;;;17.50;99.90;;;;;;4994747;28;20435;-77
2021/06/21 10:39:24;;;;;;;1.83;1.10;;;17.60;99.90;;;;;;4994759;28;20389;-77
2021/06/21 10:42:05;;;;;;;1.00;0.90;;;17.60;99.90;;;;;;4993276;28;20476;-78
2021/06/21 10:44:40;;;;;;;1.00;0.90;;;17.80;99.90;;;;;;4994182;28;20941;-79
2021/06/21 10:47:25;;;;;;;1.17;1.07;;;17.90;99.90;;;;;;4994635;28;20381;-77
2021/06/21 10:49:58;;;;;;;1.30;1.20;;;17.90;99.90;;;;;;4994365;28;20430;-77
2021/06/21 10:52:34;;;;;;;1.10;1.00;;;17.90;99.90;;;;;;4993311;28;20472;-77
2021/06/21 10:55:21;;;;;;;1.17;1.07;;;17.90;99.90;;;;;;4994315;28;20397;-78
2021/06/21 10:57:48;;;;;;;0.83;0.83;;;18.00;99.90;;;;;;4994350;28;20802;-77
2021/06/21 11:00:15;;;;;;;0.90;0.90;;;17.90;99.90;;;;;;4994472;28;20434;-77
2021/06/21 11:02:41;;;;;;;0.97;0.87;;;17.50;99.90;;;;;;4994336;28;20393;-76
2021/06/21 11:05:08;;;;;;;1.70;1.30;;;17.40;99.90;;;;;;4993979;28;20811;-78
2021/06/21 11:07:34;;;;;;;1.13;1.03;;;17.50;99.90;;;;;;4993704;28;20824;-77
2021/06/21 11:10:02;;;;;;;1.60;1.47;;;17.50;99.90;;;;;;4994353;28;20453;-76
2021/06/21 11:12:30;;;;;;;1.30;1.20;;;17.60;99.90;;;;;;4994465;28;20183;-77
2021/06/21 11:15:11;;;;;;;1.03;0.90;;;17.70;99.90;;;;;;4993783;28;20807;-78
2021/06/21 11:17:45;;;;;;;0.80;0.80;;;17.90;99.90;;;;;;4994363;28;20505;-78
2021/06/21 11:20:44;;;;;;;1.63;0.70;;;17.90;99.90;;;;;;4993963;28;20422;-78
2021/06/21 11:23:31;;;;;;;0.77;0.70;;;17.70;99.90;;;;;;4992564;28;20928;-77
2021/06/21 11:25:56;;;;;;;0.80;0.70;;;17.80;99.90;;;;;;4992506;28;20458;-78
2021/06/21 11:28:41;;;;;;;1.73;0.90;;;17.90;99.90;;;;;;4976501;28;20450;-77
2021/06/21 11:31:19;;;;;;;0.90;0.80;;;17.80;99.90;;;;;;4994161;28;20590;-79
2021/06/21 11:33:49;;;;;;;1.67;0.80;;;17.70;99.90;;;;;;4992193;28;20958;-79
2021/06/21 11:36:38;;;;;;;0.70;0.70;;;17.60;99.90;;;;;;4993880;28;20422;-79
2021/06/21 11:39:25;;;;;;;2.03;0.83;;;17.50;99.90;;;;;;4992705;28;20958;-77
2021/06/21 11:42:02;;;;;;;0.80;0.80;;;17.50;99.90;;;;;;4993884;28;20389;-78
2021/06/21 11:44:37;;;;;;;0.90;0.80;;;17.70;99.90;;;;;;4993437;28;20915;-76
2021/06/21 11:47:20;;;;;;;1.00;0.90;;;17.80;99.90;;;;;;4993599;28;20393;-77
2021/06/21 11:49:51;;;;;;;2.00;0.80;;;17.80;99.90;;;;;;4992341;28;20405;-77
2021/06/21 11:52:25;;;;;;;1.00;0.80;;;17.80;99.90;;;;;;4993125;28;20434;-79
2021/06/21 11:54:52;;;;;;;1.10;0.80;;;17.90;99.90;;;;;;4993302;28;20751;-79
2021/06/21 11:57:19;;;;;;;0.70;0.70;;;17.80;99.90;;;;;;4993806;28;20467;-78
2021/06/21 11:59:50;;;;;;;1.40;0.90;;;17.80;99.90;;;;;;4993905;28;20485;-77
2021/06/21 12:02:21;;;;;;;1.10;0.73;;;17.60;99.90;;;;;;4993476;28;20771;-79
2021/06/21 12:04:49;;;;;;;1.37;0.90;;;17.70;99.90;;;;;;4992808;28;20464;-78
2021/06/21 12:07:47;;;;;;;0.90;0.90;;;17.50;99.90;;;;;;5008564;28;20468;-77
2021/06/21 12:10:18;;;;;;;1.00;0.90;;;17.60;99.90;;;;;;5013376;28;20426;-80
2021/06/21 12:12:46;;;;;;;0.90;0.90;;;17.50;99.90;;;;;;4993163;28;20743;-79
2021/06/21 12:15:33;;;;;;;1.20;1.10;;;17.50;99.90;;;;;;4993302;28;20460;-79
2021/06/21 12:17:59;;;;;;;0.70;0.70;;;17.60;99.90;;;;;;4993713;28;20427;-79
2021/06/21 12:20:25;;;;;;;1.07;0.80;;;17.50;99.90;;;;;;4995691;28;20404;-79
2021/06/21 12:22:52;;;;;;;1.00;0.90;;;17.50;99.90;;;;;;4996824;28;20449;-78
2021/06/21 12:25:35;;;;;;;2.30;1.40;;;17.60;99.90;;;;;;4997111;28;20466;-78
2021/06/21 12:28:25;;;;;;;1.53;1.43;;;17.50;99.90;;;;;;4997162;28;20438;-78
2021/06/21 12:30:57;;;;;;;1.47;1.37;;;17.40;99.90;;;;;;4996890;28;20768;-76
2021/06/21 12:33:28;;;;;;;1.60;1.50;;;17.30;99.90;;;;;;4995326;28;20427;-79
2021/06/21 12:36:26;;;;;;;1.80;1.70;;;17.40;99.90;;;;;;4996949;28;20741;-77
2021/06/21 12:39:05;;;;;;;1.80;1.70;;;17.60;99.90;;;;;;4996863;28;20421;-78
2021/06/21 12:41:36;;;;;;;2.70;2.00;;;17.60;99.90;;;;;;4996885;28;20385;-78
2021/06/21 12:44:06;;;;;;;1.90;1.80;;;17.50;99.90;;;;;;4996319;28;20781;-79
2021/06/21 12:46:38;;;;;;;1.77;1.67;;;17.60;99.90;;;;;;4996700;28;20436;-78
2021/06/21 12:49:25;;;;;;;2.10;2.00;;;17.50;99.90;;;;;;4996778;28;20855;-79